EW4486 Weather Reports


Display with metric or nautical units.
time (UTC)temp
F
wind
direction
speed
MPH
gust
MPH
rain 1hr
in
rain 24hr
in
rain mn
in
humidity
%
barometer
mb
20210723200043 77 128 6.0 11.0 0.00 0.00 0.00 64 1019.6
20210723194546 76 156 2.0 11.0 0.00 0.00 0.00 70 1019.8
20210723193104 77 227 6.0 13.0 0.00 0.00 0.00 66 1019.9
20210723191639 77 134 7.0 10.0 0.00 0.00 0.00 65 1019.8
20210723190052 77 144 5.0 10.0 0.00 0.00 0.00 65 1020.0
20210723184526 77 128 3.0 8.0 0.00 0.00 0.00 66 1020.4
20210723183021 76 215 6.0 10.0 0.00 0.00 0.00 65 1020.4
20210723181525 76 182 5.0 11.0 0.00 0.00 0.00 66 1020.5
20210723180018 75 123 2.0 9.0 0.00 0.00 0.00 70 1020.5
20210723174538 75 115 4.0 8.0 0.00 0.00 0.00 69 1020.6
20210723173036 74 115 3.0 9.0 0.00 0.00 0.00 74 1020.6
20210723171518 73 34 3.0 8.0 0.00 0.00 0.00 75 1020.5
20210723170018 72 148 4.0 10.0 0.00 0.00 0.00 75 1020.6
20210723164511 73 136 4.0 11.0 0.00 0.00 0.00 75 1020.6
20210723163008 73 148 5.0 10.0 0.00 0.00 0.00 75 1020.9
20210723161508 72 130 6.0 10.0 0.00 0.00 0.00 75 1021.1
20210723160014 72 140 5.0 9.0 0.00 0.00 0.00 75 1021.2
20210723154509 72 197 3.0 8.0 0.00 0.00 0.00 79 1021.2
20210723153003 71 198 2.0 8.0 0.00 0.00 0.00 79 1021.3
20210723151803 70 156 4.0 8.0 0.00 0.00 0.00 79 1021.3
20210723150202 70 182 4.0 9.0 0.00 0.00 0.00 80 1021.2
20210723144614 69 200 4.0 8.0 0.00 0.00 0.00 79 1021.2
20210723143219 69 215 3.0 9.0 0.00 0.00 0.00 79 1021.2
20210723141651 69 161 3.0 9.0 0.00 0.00 0.00 80 1021.3
20210723140105 69 240 4.0 9.0 0.00 0.00 0.00 80 1021.4
20210723134641 69 192 5.0 9.0 0.00 0.00 0.00 79 1021.4
20210723133126 68 175 2.0 6.0 0.00 0.00 0.00 81 1021.4
20210723131624 67 244 1.0 5.0 0.00 0.00 0.00 82 1021.4
20210723130052 66 136 1.0 5.0 0.00 0.00 0.00 84 1021.3
20210723124610 65 180 1.0 6.0 0.00 0.00 0.00 86 1021.3
20210723123148 64 182 1.0 7.0 0.00 0.00 0.00 89 1021.1
20210723121622 64 150 1.0 4.0 0.00 0.00 0.00 93 1021.1
20210723120108 63 126 1.0 2.0 0.00 0.00 0.00 93 1021.0
20210723114742 63 217 0.0 1.0 0.00 0.00 0.00 93 1021.1
20210723113123 63 217 0.0 0.0 0.00 0.00 0.00 93 1021.0
20210723111620 62 217 0.0 1.0 0.00 0.00 0.00 92 1020.8
20210723110120 62 217 0.0 2.0 0.00 0.00 0.00 92 1020.7
20210723104556 62 216 1.0 5.0 0.00 0.00 0.00 92 1020.4
20210723103123 61 213 1.0 4.0 0.00 0.00 0.00 91 1020.4
20210723101626 62 223 2.0 5.0 0.00 0.00 0.00 92 1020.3
20210723100143 62 213 2.0 6.0 0.00 0.00 0.00 93 1019.8
20210723094540 61 213 2.0 4.0 0.00 0.00 0.00 91 1019.9
20210723093049 61 225 0.0 2.0 0.00 0.00 0.00 92 1020.1
20210723091652 61 227 1.0 3.0 0.00 0.00 0.00 93 1020.0
20210723090039 62 202 0.0 2.0 0.00 0.00 0.00 94 1019.9
20210723084610 62 194 0.0 2.0 0.00 0.00 0.00 94 1019.9
20210723083053 62 202 0.0 2.0 0.00 0.00 0.00 94 1019.8
20210723081545 62 202 0.0 2.0 0.00 0.00 0.00 94 1019.7
20210723080053 63 208 0.0 2.0 0.00 0.00 0.00 95 1019.7
20210723074634 63 207 1.0 2.0 0.00 0.00 0.00 94 1019.9
20210723073029 63 209 0.0 4.0 0.00 0.00 0.00 94 1020.2
20210723071606 63 227 1.0 2.0 0.00 0.00 0.00 94 1020.2
20210723070023 63 226 1.0 3.0 0.00 0.00 0.00 93 1020.3
20210723064550 64 217 2.0 5.0 0.00 0.00 0.00 93 1020.4
20210723063024 64 221 1.0 4.0 0.00 0.00 0.00 93 1020.5
20210723061556 64 219 1.0 4.0 0.00 0.00 0.00 94 1020.8
20210723060029 64 242 1.0 4.0 0.00 0.00 0.00 94 1020.9
20210723054522 64 231 1.0 3.0 0.00 0.00 0.00 94 1021.3
20210723053029 64 220 2.0 4.0 0.00 0.00 0.00 94 1021.4
20210723051519 64 223 1.0 3.0 0.00 0.00 0.00 94 1021.5
20210723050024 64 234 1.0 4.0 0.00 0.00 0.00 95 1021.5
20210723044540 64 226 1.0 4.0 0.00 0.00 0.00 95 1021.5
20210723043050 64 221 1.0 3.0 0.00 0.00 0.00 95 1021.7
20210723041535 64 216 1.0 3.0 0.00 0.00 0.00 94 1021.6
20210723040041 64 222 1.0 3.0 0.00 0.00 0.00 93 1021.5
20210723034512 64 223 0.0 1.0 0.00 0.00 0.00 93 1021.4
20210723033019 64 223 1.0 2.0 0.00 0.00 0.00 92 1021.5
20210723031526 65 219 0.0 2.0 0.00 0.00 0.00 91 1021.6
20210723030013 65 219 0.0 2.0 0.00 0.00 0.00 92 1021.5
20210723024533 65 219 1.0 2.0 0.00 0.00 0.00 92 1021.5
20210723023022 65 220 1.0 2.0 0.00 0.00 0.00 91 1021.4
20210723021527 65 220 0.0 2.0 0.00 0.00 0.00 91 1021.4
20210723020005 66 221 0.0 3.0 0.00 0.00 0.00 90 1021.3
20210723014542 66 213 1.0 4.0 0.00 0.00 0.00 90 1021.2
20210723013004 66 212 2.0 5.0 0.00 0.00 0.00 90 1021.0
20210723010017 67 200 1.0 2.0 0.00 0.00 0.00 87 1020.7
20210723004501 68 173 0.0 4.0 0.00 0.00 0.00 85 1020.6
20210723003000 69 179 0.0 2.0 0.00 0.00 0.00 84 1020.5
20210723001704 70 140 0.0 4.0 0.00 0.00 0.00 81 1020.5
20210723000312 71 173 0.0 2.0 0.00 0.00 0.00 79 1020.4
20210722234719 72 215 1.0 4.0 0.00 0.00 0.00 78 1020.3
20210722233141 74 233 1.0 3.0 0.00 0.00 0.00 70 1020.1
20210722231650 74 225 1.0 5.0 0.00 0.00 0.00 54 1020.0
20210722230128 75 171 2.0 5.0 0.00 0.00 0.00 71 1019.9
20210722224634 76 247 2.0 6.0 0.00 0.00 0.00 68 1019.8
20210722223131 76 134 2.0 5.0 0.00 0.00 0.00 52 1019.8
20210722221700 77 32 2.0 6.0 0.00 0.00 0.00 52 1019.7
20210722220210 77 32 2.0 6.0 0.00 0.00 0.00 51 1019.6
20210722214719 77 311 2.0 8.0 0.00 0.00 0.00 52 1019.6
20210722213146 77 323 1.0 8.0 0.00 0.00 0.00 48 1019.6
20210722211642 78 35 2.0 7.0 0.00 0.00 0.00 47 1019.5
20210722210119 79 298 2.0 7.0 0.00 0.00 0.00 47 1019.4
20210722204659 79 320 2.0 9.0 0.00 0.00 0.00 51 1019.5
20210722203140 79 149 1.0 8.0 0.00 0.00 0.00 49 1019.4
20210722201614 79 227 3.0 8.0 0.00 0.00 0.00 58 1019.5